sensor_id;sensor_type;location;lat;lon;timestamp;noise_LAeq;noise_LA_min;noise_LA_max;noise_LA01;noise_LA95
56745;Laerm;42622;49.972;8.452;2022-11-20T00:01:28;5.00;5.00;5.00;;
56745;Laerm;42622;49.972;8.452;2022-11-20T00:06:26;5.00;5.00;5.00;;
56745;Laerm;42622;49.972;8.452;2022-11-20T00:11:26;5.00;5.00;5.00;;
56745;Laerm;42622;49.972;8.452;2022-11-20T00:13:59;5.00;5.00;5.00;;
56745;Laerm;42622;49.972;8.452;2022-11-20T00:16:30;5.00;5.00;5.00;;
56745;Laerm;42622;49.972;8.452;2022-11-20T00:18:56;5.00;5.00;5.00;;
56745;Laerm;42622;49.972;8.452;2022-11-20T00:21:26;5.00;5.00;5.00;;
56745;Laerm;42622;49.972;8.452;2022-11-20T00:23:56;5.00;5.00;5.00;;
56745;Laerm;42622;49.972;8.452;2022-11-20T00:26:26;825.21;0.00;18494647683753925093697034753859.04;;
56745;Laerm;42622;49.972;8.452;2022-11-20T00:29:00;5.00;5.00;5.00;;
56745;Laerm;42622;49.972;8.452;2022-11-20T00:31:28;5.00;5.00;5.00;;
56745;Laerm;42622;49.972;8.452;2022-11-20T00:36:25;5.00;5.00;5.00;;
56745;Laerm;42622;49.972;8.452;2022-11-20T00:38:55;5.00;5.00;5.00;;
56745;Laerm;42622;49.972;8.452;2022-11-20T00:43:52;5.00;5.00;5.00;;
56745;Laerm;42622;49.972;8.452;2022-11-20T00:46:24;5.00;5.00;5.00;;
56745;Laerm;42622;49.972;8.452;2022-11-20T00:48:50;5.00;5.00;5.00;;
56745;Laerm;42622;49.972;8.452;2022-11-20T00:51:22;5.00;5.00;5.00;;
56745;Laerm;42622;49.972;8.452;2022-11-20T00:53:49;5.00;5.00;5.00;;
56745;Laerm;42622;49.972;8.452;2022-11-20T00:58:47;5.00;5.00;5.00;;
56745;Laerm;42622;49.972;8.452;2022-11-20T01:01:22;5.00;5.00;5.00;;
56745;Laerm;42622;49.972;8.452;2022-11-20T01:03:56;5.00;5.00;5.00;;
56745;Laerm;42622;49.972;8.452;2022-11-20T01:06:32;5.00;5.00;5.00;;
56745;Laerm;42622;49.972;8.452;2022-11-20T01:11:35;5.00;5.00;5.00;;
56745;Laerm;42622;49.972;8.452;2022-11-20T01:14:05;5.00;5.00;5.00;;
56745;Laerm;42622;49.972;8.452;2022-11-20T01:16:37;5.00;5.00;5.00;;
56745;Laerm;42622;49.972;8.452;2022-11-20T01:19:10;5.00;5.00;5.00;;
56745;Laerm;42622;49.972;8.452;2022-11-20T01:21:41;5.00;5.00;5.00;;
56745;Laerm;42622;49.972;8.452;2022-11-20T01:26:42;5.00;5.00;5.00;;
56745;Laerm;42622;49.972;8.452;2022-11-20T01:29:22;5.00;5.00;5.00;;
56745;Laerm;42622;49.972;8.452;2022-11-20T01:31:49;5.00;5.00;5.00;;
56745;Laerm;42622;49.972;8.452;2022-11-20T01:34:19;5.00;5.00;5.00;;
56745;Laerm;42622;49.972;8.452;2022-11-20T01:36:45;5.00;5.00;5.00;;
56745;Laerm;42622;49.972;8.452;2022-11-20T01:39:25;5.00;5.00;5.00;;
56745;Laerm;42622;49.972;8.452;2022-11-20T01:41:54;5.00;5.00;5.00;;
56745;Laerm;42622;49.972;8.452;2022-11-20T01:44:58;5.00;5.00;5.00;;
56745;Laerm;42622;49.972;8.452;2022-11-20T01:47:40;5.00;5.00;5.00;;
56745;Laerm;42622;49.972;8.452;2022-11-20T01:53:05;5.00;5.00;5.00;;
56745;Laerm;42622;49.972;8.452;2022-11-20T01:55:49;5.00;5.00;5.00;;
56745;Laerm;42622;49.972;8.452;2022-11-20T01:58:20;5.00;5.00;5.00;;
56745;Laerm;42622;49.972;8.452;2022-11-20T02:00:48;5.00;5.00;5.00;;
56745;Laerm;42622;49.972;8.452;2022-11-20T02:03:19;5.00;5.00;5.00;;
56745;Laerm;42622;49.972;8.452;2022-11-20T02:06:07;5.00;5.00;5.00;;
56745;Laerm;42622;49.972;8.452;2022-11-20T02:08:38;5.00;5.00;5.00;;
56745;Laerm;42622;49.972;8.452;2022-11-20T02:11:04;5.00;5.00;5.00;;
56745;Laerm;42622;49.972;8.452;2022-11-20T02:13:30;5.00;5.00;5.00;;
56745;Laerm;42622;49.972;8.452;2022-11-20T02:16:24;5.00;5.00;5.00;;
56745;Laerm;42622;49.972;8.452;2022-11-20T02:18:55;5.00;5.00;5.00;;
56745;Laerm;42622;49.972;8.452;2022-11-20T02:21:51;5.00;5.00;5.00;;
56745;Laerm;42622;49.972;8.452;2022-11-20T02:24:22;5.00;5.00;5.00;;
56745;Laerm;42622;49.972;8.452;2022-11-20T02:29:38;5.00;5.00;5.00;;
56745;Laerm;42622;49.972;8.452;2022-11-20T02:32:05;5.00;5.00;5.00;;
56745;Laerm;42622;49.972;8.452;2022-11-20T02:34:31;5.00;5.00;5.00;;
56745;Laerm;42622;49.972;8.452;2022-11-20T02:36:59;5.00;5.00;5.00;;
56745;Laerm;42622;49.972;8.452;2022-11-20T02:39:28;5.00;5.00;5.00;;
56745;Laerm;42622;49.972;8.452;2022-11-20T02:41:56;5.00;5.00;5.00;;
56745;Laerm;42622;49.972;8.452;2022-11-20T02:44:22;5.00;5.00;5.00;;
56745;Laerm;42622;49.972;8.452;2022-11-20T02:46:48;5.00;5.00;5.00;;
56745;Laerm;42622;49.972;8.452;2022-11-20T02:49:14;5.00;5.00;5.00;;
56745;Laerm;42622;49.972;8.452;2022-11-20T02:51:39;5.00;5.00;5.00;;
56745;Laerm;42622;49.972;8.452;2022-11-20T02:54:05;5.00;5.00;5.00;;
56745;Laerm;42622;49.972;8.452;2022-11-20T02:56:31;5.00;5.00;5.00;;
56745;Laerm;42622;49.972;8.452;2022-11-20T02:58:57;5.00;5.00;5.00;;
56745;Laerm;42622;49.972;8.452;2022-11-20T03:01:22;5.00;5.00;5.00;;
56745;Laerm;42622;49.972;8.452;2022-11-20T03:03:48;5.00;5.00;5.00;;
56745;Laerm;42622;49.972;8.452;2022-11-20T03:06:16;5.00;5.00;5.00;;
56745;Laerm;42622;49.972;8.452;2022-11-20T03:08:43;5.00;5.00;5.00;;
56745;Laerm;42622;49.972;8.452;2022-11-20T03:11:09;5.00;5.00;5.00;;
56745;Laerm;42622;49.972;8.452;2022-11-20T03:13:35;5.00;5.00;5.00;;
56745;Laerm;42622;49.972;8.452;2022-11-20T03:16:09;5.00;5.00;5.00;;
56745;Laerm;42622;49.972;8.452;2022-11-20T03:18:36;5.00;5.00;5.00;;
56745;Laerm;42622;49.972;8.452;2022-11-20T03:21:01;5.00;5.00;5.00;;
56745;Laerm;42622;49.972;8.452;2022-11-20T03:28:50;5.00;5.00;5.00;;
56745;Laerm;42622;49.972;8.452;2022-11-20T03:31:22;5.00;5.00;5.00;;
56745;Laerm;42622;49.972;8.452;2022-11-20T03:33:48;5.00;5.00;5.00;;
56745;Laerm;42622;49.972;8.452;2022-11-20T03:36:18;5.00;5.00;5.00;;
56745;Laerm;42622;49.972;8.452;2022-11-20T03:38:45;5.00;5.00;5.00;;
56745;Laerm;42622;49.972;8.452;2022-11-20T03:41:22;5.00;5.00;5.00;;
56745;Laerm;42622;49.972;8.452;2022-11-20T03:44:06;5.00;5.00;5.00;;
56745;Laerm;42622;49.972;8.452;2022-11-20T03:48:58;5.00;5.00;5.00;;
56745;Laerm;42622;49.972;8.452;2022-11-20T03:51:29;5.00;5.00;5.00;;
56745;Laerm;42622;49.972;8.452;2022-11-20T03:56:31;5.00;5.00;5.00;;
56745;Laerm;42622;49.972;8.452;2022-11-20T03:58:57;5.00;5.00;5.00;;
56745;Laerm;42622;49.972;8.452;2022-11-20T04:01:31;5.00;5.00;5.00;;
56745;Laerm;42622;49.972;8.452;2022-11-20T04:03:58;5.00;5.00;5.00;;
56745;Laerm;42622;49.972;8.452;2022-11-20T04:06:34;5.00;5.00;5.00;;
56745;Laerm;42622;49.972;8.452;2022-11-20T04:09:00;5.00;5.00;5.00;;
56745;Laerm;42622;49.972;8.452;2022-11-20T04:11:33;5.00;5.00;5.00;;
56745;Laerm;42622;49.972;8.452;2022-11-20T04:14:06;5.00;5.00;5.00;;
56745;Laerm;42622;49.972;8.452;2022-11-20T04:16:36;5.00;5.00;5.00;;
56745;Laerm;42622;49.972;8.452;2022-11-20T04:19:06;5.00;5.00;5.00;;
56745;Laerm;42622;49.972;8.452;2022-11-20T04:21:32;5.00;5.00;5.00;;
56745;Laerm;42622;49.972;8.452;2022-11-20T04:23:58;5.00;5.00;5.00;;
56745;Laerm;42622;49.972;8.452;2022-11-20T04:26:29;5.00;5.00;5.00;;
56745;Laerm;42622;49.972;8.452;2022-11-20T04:28:57;5.00;5.00;5.00;;
56745;Laerm;42622;49.972;8.452;2022-11-20T04:31:28;5.00;5.00;5.00;;
56745;Laerm;42622;49.972;8.452;2022-11-20T04:33:54;5.00;5.00;5.00;;
56745;Laerm;42622;49.972;8.452;2022-11-20T04:36:27;5.00;5.00;5.00;;
56745;Laerm;42622;49.972;8.452;2022-11-20T04:38:57;5.00;5.00;5.00;;
56745;Laerm;42622;49.972;8.452;2022-11-20T04:43:58;5.00;5.00;5.00;;
56745;Laerm;42622;49.972;8.452;2022-11-20T04:46:33;5.00;5.00;5.00;;
56745;Laerm;42622;49.972;8.452;2022-11-20T04:51:27;5.00;5.00;5.00;;
56745;Laerm;42622;49.972;8.452;2022-11-20T04:53:53;5.00;5.00;5.00;;
56745;Laerm;42622;49.972;8.452;2022-11-20T04:56:19;5.00;5.00;5.00;;
56745;Laerm;42622;49.972;8.452;2022-11-20T04:58:44;5.00;5.00;5.00;;
56745;Laerm;42622;49.972;8.452;2022-11-20T05:01:21;5.00;5.00;5.00;;
56745;Laerm;42622;49.972;8.452;2022-11-20T05:03:48;5.00;5.00;5.00;;
56745;Laerm;42622;49.972;8.452;2022-11-20T05:06:18;5.00;5.00;5.00;;
56745;Laerm;42622;49.972;8.452;2022-11-20T05:08:44;5.00;5.00;5.00;;
56745;Laerm;42622;49.972;8.452;2022-11-20T05:11:15;5.00;5.00;5.00;;
56745;Laerm;42622;49.972;8.452;2022-11-20T05:13:42;5.00;5.00;5.00;;
56745;Laerm;42622;49.972;8.452;2022-11-20T05:16:20;5.00;5.00;5.00;;
56745;Laerm;42622;49.972;8.452;2022-11-20T05:18:46;5.00;5.00;5.00;;
56745;Laerm;42622;49.972;8.452;2022-11-20T05:21:14;5.00;5.00;5.00;;
56745;Laerm;42622;49.972;8.452;2022-11-20T05:23:42;5.00;5.00;5.00;;
56745;Laerm;42622;49.972;8.452;2022-11-20T05:26:19;5.00;5.00;5.00;;
56745;Laerm;42622;49.972;8.452;2022-11-20T05:28:48;5.00;5.00;5.00;;
56745;Laerm;42622;49.972;8.452;2022-11-20T05:31:19;5.00;5.00;5.00;;
56745;Laerm;42622;49.972;8.452;2022-11-20T05:33:46;5.00;5.00;5.00;;
56745;Laerm;42622;49.972;8.452;2022-11-20T05:36:15;5.00;5.00;5.00;;
56745;Laerm;42622;49.972;8.452;2022-11-20T05:38:42;5.00;5.00;5.00;;
56745;Laerm;42622;49.972;8.452;2022-11-20T05:41:17;5.00;5.00;5.00;;
56745;Laerm;42622;49.972;8.452;2022-11-20T05:43:46;5.00;5.00;5.00;;
56745;Laerm;42622;49.972;8.452;2022-11-20T05:46:16;5.00;5.00;5.00;;
56745;Laerm;42622;49.972;8.452;2022-11-20T05:48:44;5.00;5.00;5.00;;
56745;Laerm;42622;49.972;8.452;2022-11-20T05:51:15;5.00;5.00;5.00;;
56745;Laerm;42622;49.972;8.452;2022-11-20T05:56:19;5.00;5.00;5.00;;
56745;Laerm;42622;49.972;8.452;2022-11-20T05:58:47;5.00;5.00;5.00;;
56745;Laerm;42622;49.972;8.452;2022-11-20T06:01:24;5.00;5.00;5.00;;
56745;Laerm;42622;49.972;8.452;2022-11-20T06:03:53;5.00;5.00;5.00;;
56745;Laerm;42622;49.972;8.452;2022-11-20T06:08:46;5.00;5.00;5.00;;
56745;Laerm;42622;49.972;8.452;2022-11-20T06:13:42;5.00;5.00;5.00;;
56745;Laerm;42622;49.972;8.452;2022-11-20T06:16:09;5.00;5.00;5.00;;
56745;Laerm;42622;49.972;8.452;2022-11-20T06:18:35;5.00;5.00;5.00;;
56745;Laerm;42622;49.972;8.452;2022-11-20T06:21:16;5.00;5.00;5.00;;
56745;Laerm;42622;49.972;8.452;2022-11-20T06:23:43;5.00;5.00;5.00;;
56745;Laerm;42622;49.972;8.452;2022-11-20T06:26:23;5.00;5.00;5.00;;
56745;Laerm;42622;49.972;8.452;2022-11-20T06:28:51;5.00;5.00;5.00;;
56745;Laerm;42622;49.972;8.452;2022-11-20T06:31:21;5.00;5.00;5.00;;
56745;Laerm;42622;49.972;8.452;2022-11-20T06:36:19;5.00;5.00;5.00;;
56745;Laerm;42622;49.972;8.452;2022-11-20T06:41:21;5.00;5.00;5.00;;
56745;Laerm;42622;49.972;8.452;2022-11-20T06:46:17;5.00;5.00;5.00;;
56745;Laerm;42622;49.972;8.452;2022-11-20T06:48:44;5.00;5.00;5.00;;
56745;Laerm;42622;49.972;8.452;2022-11-20T06:51:12;5.00;5.00;5.00;;
56745;Laerm;42622;49.972;8.452;2022-11-20T06:56:05;5.00;5.00;5.00;;
56745;Laerm;42622;49.972;8.452;2022-11-20T06:58:35;5.00;5.00;5.00;;
56745;Laerm;42622;49.972;8.452;2022-11-20T07:01:07;5.00;5.00;5.00;;
56745;Laerm;42622;49.972;8.452;2022-11-20T07:03:34;5.00;5.00;5.00;;
56745;Laerm;42622;49.972;8.452;2022-11-20T07:06:02;5.00;5.00;5.00;;
56745;Laerm;42622;49.972;8.452;2022-11-20T07:08:28;5.00;5.00;5.00;;
56745;Laerm;42622;49.972;8.452;2022-11-20T07:10:59;5.00;5.00;5.00;;
56745;Laerm;42622;49.972;8.452;2022-11-20T07:13:27;5.00;5.00;5.00;;
56745;Laerm;42622;49.972;8.452;2022-11-20T07:15:53;5.00;5.00;5.00;;
56745;Laerm;42622;49.972;8.452;2022-11-20T07:18:19;5.00;5.00;5.00;;
56745;Laerm;42622;49.972;8.452;2022-11-20T07:20:45;5.00;5.00;5.00;;
56745;Laerm;42622;49.972;8.452;2022-11-20T07:23:10;5.00;5.00;5.00;;
56745;Laerm;42622;49.972;8.452;2022-11-20T07:25:36;5.00;5.00;5.00;;
56745;Laerm;42622;49.972;8.452;2022-11-20T07:28:02;5.00;5.00;5.00;;
56745;Laerm;42622;49.972;8.452;2022-11-20T07:30:28;5.00;5.00;5.00;;
56745;Laerm;42622;49.972;8.452;2022-11-20T07:35:24;5.00;5.00;5.00;;
56745;Laerm;42622;49.972;8.452;2022-11-20T07:37:49;5.00;5.00;5.00;;
56745;Laerm;42622;49.972;8.452;2022-11-20T07:40:19;5.00;5.00;5.00;;
56745;Laerm;42622;49.972;8.452;2022-11-20T07:42:55;5.00;5.00;5.00;;
56745;Laerm;42622;49.972;8.452;2022-11-20T07:45:24;5.00;5.00;5.00;;
56745;Laerm;42622;49.972;8.452;2022-11-20T07:47:51;5.00;5.00;5.00;;
56745;Laerm;42622;49.972;8.452;2022-11-20T07:52:44;5.00;5.00;5.00;;
56745;Laerm;42622;49.972;8.452;2022-11-20T07:55:11;5.00;5.00;5.00;;
56745;Laerm;42622;49.972;8.452;2022-11-20T07:57:37;5.00;5.00;5.00;;
56745;Laerm;42622;49.972;8.452;2022-11-20T08:00:08;5.00;5.00;5.00;;
56745;Laerm;42622;49.972;8.452;2022-11-20T08:02:41;5.00;5.00;5.00;;
56745;Laerm;42622;49.972;8.452;2022-11-20T08:05:09;5.00;5.00;5.00;;
56745;Laerm;42622;49.972;8.452;2022-11-20T08:07:41;5.00;5.00;5.00;;
56745;Laerm;42622;49.972;8.452;2022-11-20T08:12:54;5.00;5.00;5.00;;
56745;Laerm;42622;49.972;8.452;2022-11-20T08:18:10;5.00;5.00;5.00;;
56745;Laerm;42622;49.972;8.452;2022-11-20T08:20:39;5.00;5.00;5.00;;
56745;Laerm;42622;49.972;8.452;2022-11-20T08:23:07;5.00;5.00;5.00;;
56745;Laerm;42622;49.972;8.452;2022-11-20T08:25:37;5.00;5.00;5.00;;
56745;Laerm;42622;49.972;8.452;2022-11-20T08:28:08;5.00;5.00;5.00;;
56745;Laerm;42622;49.972;8.452;2022-11-20T08:33:08;825.21;0.00;18494647683753925093697034753859.04;;
56745;Laerm;42622;49.972;8.452;2022-11-20T08:35:38;5.00;5.00;5.00;;
56745;Laerm;42622;49.972;8.452;2022-11-20T08:38:05;5.00;5.00;5.00;;
56745;Laerm;42622;49.972;8.452;2022-11-20T08:40:32;5.00;5.00;5.00;;
56745;Laerm;42622;49.972;8.452;2022-11-20T08:45:24;5.00;5.00;5.00;;
56745;Laerm;42622;49.972;8.452;2022-11-20T08:47:50;5.00;5.00;5.00;;
56745;Laerm;42622;49.972;8.452;2022-11-20T08:50:17;5.00;5.00;5.00;;
56745;Laerm;42622;49.972;8.452;2022-11-20T08:52:43;5.00;5.00;5.00;;
56745;Laerm;42622;49.972;8.452;2022-11-20T08:55:10;5.00;5.00;5.00;;
56745;Laerm;42622;49.972;8.452;2022-11-20T08:57:37;5.00;5.00;5.00;;
56745;Laerm;42622;49.972;8.452;2022-11-20T09:00:07;5.00;5.00;5.00;;
56745;Laerm;42622;49.972;8.452;2022-11-20T09:02:33;5.00;5.00;5.00;;
56745;Laerm;42622;49.972;8.452;2022-11-20T09:04:59;5.00;5.00;5.00;;
56745;Laerm;42622;49.972;8.452;2022-11-20T09:07:25;5.00;5.00;5.00;;
56745;Laerm;42622;49.972;8.452;2022-11-20T09:09:50;5.00;5.00;5.00;;
56745;Laerm;42622;49.972;8.452;2022-11-20T09:12:16;5.00;5.00;5.00;;
56745;Laerm;42622;49.972;8.452;2022-11-20T09:14:42;5.00;5.00;5.00;;
56745;Laerm;42622;49.972;8.452;2022-11-20T09:17:10;5.00;5.00;5.00;;
56745;Laerm;42622;49.972;8.452;2022-11-20T09:19:39;5.00;5.00;5.00;;
56745;Laerm;42622;49.972;8.452;2022-11-20T09:22:06;5.00;5.00;5.00;;
56745;Laerm;42622;49.972;8.452;2022-11-20T09:24:32;5.00;5.00;5.00;;
56745;Laerm;42622;49.972;8.452;2022-11-20T09:26:58;5.00;5.00;5.00;;
56745;Laerm;42622;49.972;8.452;2022-11-20T09:29:23;5.00;5.00;5.00;;
56745;Laerm;42622;49.972;8.452;2022-11-20T09:31:49;5.00;5.00;5.00;;
56745;Laerm;42622;49.972;8.452;2022-11-20T09:34:15;5.00;5.00;5.00;;
56745;Laerm;42622;49.972;8.452;2022-11-20T09:36:41;5.00;5.00;5.00;;
56745;Laerm;42622;49.972;8.452;2022-11-20T09:39:06;5.00;5.00;5.00;;
56745;Laerm;42622;49.972;8.452;2022-11-20T09:51:09;5.00;5.00;5.00;;
56745;Laerm;42622;49.972;8.452;2022-11-20T10:08:07;5.00;5.00;5.00;;
56745;Laerm;42622;49.972;8.452;2022-11-20T10:20:26;5.00;5.00;5.00;;
56745;Laerm;42622;49.972;8.452;2022-11-20T10:26:51;5.00;5.00;5.00;;
56745;Laerm;42622;49.972;8.452;2022-11-20T10:29:34;5.00;5.00;5.00;;
56745;Laerm;42622;49.972;8.452;2022-11-20T10:32:30;5.00;5.00;5.00;;
56745;Laerm;42622;49.972;8.452;2022-11-20T10:36:21;5.00;5.00;5.00;;
56745;Laerm;42622;49.972;8.452;2022-11-20T10:38:36;5.00;5.00;5.00;;
56745;Laerm;42622;49.972;8.452;2022-11-20T10:41:06;5.00;5.00;5.00;;
56745;Laerm;42622;49.972;8.452;2022-11-20T10:44:22;5.00;5.00;5.00;;
56745;Laerm;42622;49.972;8.452;2022-11-20T10:47:16;5.00;5.00;5.00;;
56745;Laerm;42622;49.972;8.452;2022-11-20T10:49:53;5.00;5.00;5.00;;
56745;Laerm;42622;49.972;8.452;2022-11-20T10:53:20;5.00;5.00;5.00;;
56745;Laerm;42622;49.972;8.452;2022-11-20T10:56:05;5.00;5.00;5.00;;
56745;Laerm;42622;49.972;8.452;2022-11-20T10:59:04;5.00;5.00;5.00;;
56745;Laerm;42622;49.972;8.452;2022-11-20T11:04:36;825.21;0.00;18494647683753925093697034753859.04;;
56745;Laerm;42622;49.972;8.452;2022-11-20T11:09:53;5.00;5.00;5.00;;
56745;Laerm;42622;49.972;8.452;2022-11-20T11:12:27;5.00;5.00;5.00;;
56745;Laerm;42622;49.972;8.452;2022-11-20T11:14:57;825.21;0.00;18494647683753925093697034753859.04;;
56745;Laerm;42622;49.972;8.452;2022-11-20T11:17:31;5.00;5.00;5.00;;
56745;Laerm;42622;49.972;8.452;2022-11-20T11:20:25;5.00;5.00;5.00;;
56745;Laerm;42622;49.972;8.452;2022-11-20T11:22:57;825.21;0.00;18494647683753925093697034753859.04;;
56745;Laerm;42622;49.972;8.452;2022-11-20T11:25:35;66.96;5.00;86.48;;
56745;Laerm;42622;49.972;8.452;2022-11-20T11:28:19;65.76;5.00;86.46;;
56745;Laerm;42622;49.972;8.452;2022-11-20T11:33:28;59.75;5.00;90.99;;
56745;Laerm;42622;49.972;8.452;2022-11-20T11:36:17;5.00;5.00;5.00;;
56745;Laerm;42622;49.972;8.452;2022-11-20T11:38:44;5.00;5.00;5.00;;
56745;Laerm;42622;49.972;8.452;2022-11-20T11:41:23;57.80;42.03;70.32;;
56745;Laerm;42622;49.972;8.452;2022-11-20T11:44:19;58.32;42.29;70.15;;
56745;Laerm;42622;49.972;8.452;2022-11-20T11:49:43;43.35;40.89;54.84;;
56745;Laerm;42622;49.972;8.452;2022-11-20T11:52:18;44.79;40.89;57.69;;
56745;Laerm;42622;49.972;8.452;2022-11-20T11:55:05;49.60;40.43;66.67;;
56745;Laerm;42622;49.972;8.452;2022-11-20T12:00:19;61.10;41.68;72.53;;
56745;Laerm;42622;49.972;8.452;2022-11-20T12:05:42;52.25;41.14;66.49;;
56745;Laerm;42622;49.972;8.452;2022-11-20T12:08:49;44.30;40.23;54.50;;
56745;Laerm;42622;49.972;8.452;2022-11-20T12:12:05;43.14;40.53;60.91;;
56745;Laerm;42622;49.972;8.452;2022-11-20T12:14:41;42.64;39.92;55.36;;
56745;Laerm;42622;49.972;8.452;2022-11-20T12:17:14;42.82;40.03;51.13;;
56745;Laerm;42622;49.972;8.452;2022-11-20T12:19:41;61.27;41.14;74.41;;
56745;Laerm;42622;49.972;8.452;2022-11-20T12:25:24;42.77;33.44;54.87;;
56745;Laerm;42622;49.972;8.452;2022-11-20T12:28:44;52.35;39.46;65.60;;
56745;Laerm;42622;49.972;8.452;2022-11-20T12:31:20;55.68;39.81;69.25;;
56745;Laerm;42622;49.972;8.452;2022-11-20T12:37:33;43.25;40.23;52.66;;
56745;Laerm;42622;49.972;8.452;2022-11-20T12:43:22;55.70;40.53;88.47;;
56745;Laerm;42622;49.972;8.452;2022-11-20T12:46:27;59.64;44.27;92.01;;
56745;Laerm;42622;49.972;8.452;2022-11-20T12:49:19;55.45;42.47;75.81;;
56745;Laerm;42622;49.972;8.452;2022-11-20T12:55:30;60.83;41.30;74.17;;
56745;Laerm;42622;49.972;8.452;2022-11-20T13:01:59;55.62;39.81;67.97;;
56745;Laerm;42622;49.972;8.452;2022-11-20T13:10:18;43.23;40.43;51.88;;
56745;Laerm;42622;49.972;8.452;2022-11-20T13:16:04;55.67;40.33;67.54;;
56745;Laerm;42622;49.972;8.452;2022-11-20T13:18:40;53.57;41.53;68.57;;
56745;Laerm;42622;49.972;8.452;2022-11-20T13:21:22;56.75;42.90;69.51;;
56745;Laerm;42622;49.972;8.452;2022-11-20T13:31:48;60.43;41.53;76.69;;
56745;Laerm;42622;49.972;8.452;2022-11-20T13:36:59;63.21;47.18;91.40;;
56745;Laerm;42622;49.972;8.452;2022-11-20T13:44:48;57.30;49.39;83.70;;
56745;Laerm;42622;49.972;8.452;2022-11-20T13:47:23;51.09;44.19;74.70;;
56745;Laerm;42622;49.972;8.452;2022-11-20T13:55:43;45.65;42.65;62.28;;
56745;Laerm;42622;49.972;8.452;2022-11-20T13:58:44;44.19;41.46;57.13;;
56745;Laerm;42622;49.972;8.452;2022-11-20T14:01:22;44.14;42.03;52.88;;
56745;Laerm;42622;49.972;8.452;2022-11-20T14:03:50;44.37;41.22;54.19;;
56745;Laerm;42622;49.972;8.452;2022-11-20T14:08:55;43.74;41.53;52.70;;
56745;Laerm;42622;49.972;8.452;2022-11-20T14:11:28;44.60;40.89;61.43;;
56745;Laerm;42622;49.972;8.452;2022-11-20T14:14:10;43.28;40.98;53.35;;
56745;Laerm;42622;49.972;8.452;2022-11-20T14:16:39;43.24;41.22;51.49;;
56745;Laerm;42622;49.972;8.452;2022-11-20T14:22:26;44.39;42.03;55.13;;
56745;Laerm;42622;49.972;8.452;2022-11-20T14:25:14;54.81;42.09;68.70;;
56745;Laerm;42622;49.972;8.452;2022-11-20T14:30:37;43.16;40.43;58.93;;
56745;Laerm;42622;49.972;8.452;2022-11-20T14:35:45;0.00;0.00;0.00;;
56745;Laerm;42622;49.972;8.452;2022-11-20T14:38:22;45.97;42.41;64.34;;
56745;Laerm;42622;49.972;8.452;2022-11-20T14:40:49;44.50;41.82;57.87;;
56745;Laerm;42622;49.972;8.452;2022-11-20T14:43:25;44.18;41.68;57.51;;
56745;Laerm;42622;49.972;8.452;2022-11-20T14:46:07;43.32;41.03;56.19;;
56745;Laerm;42622;49.972;8.452;2022-11-20T14:48:50;46.26;40.71;60.95;;
56745;Laerm;42622;49.972;8.452;2022-11-20T14:51:39;44.51;41.38;58.74;;
56745;Laerm;42622;49.972;8.452;2022-11-20T14:54:20;43.92;41.14;66.63;;
56745;Laerm;42622;49.972;8.452;2022-11-20T14:57:03;43.83;41.30;52.15;;
56745;Laerm;42622;49.972;8.452;2022-11-20T14:59:34;45.71;41.82;60.52;;
56745;Laerm;42622;49.972;8.452;2022-11-20T15:02:11;54.20;42.03;66.63;;
56745;Laerm;42622;49.972;8.452;2022-11-20T15:04:58;56.40;42.93;69.43;;
56745;Laerm;42622;49.972;8.452;2022-11-20T15:07:37;56.47;41.46;70.71;;
56745;Laerm;42622;49.972;8.452;2022-11-20T15:10:10;55.47;43.09;68.07;;
56745;Laerm;42622;49.972;8.452;2022-11-20T15:12:59;56.22;43.58;69.82;;
56745;Laerm;42622;49.972;8.452;2022-11-20T15:15:50;56.07;43.24;69.28;;
56745;Laerm;42622;49.972;8.452;2022-11-20T15:21:00;52.73;42.47;66.38;;
56745;Laerm;42622;49.972;8.452;2022-11-20T15:25:55;49.04;43.24;64.16;;
56745;Laerm;42622;49.972;8.452;2022-11-20T15:28:37;57.95;43.34;71.68;;
56745;Laerm;42622;49.972;8.452;2022-11-20T15:31:06;53.21;43.94;70.96;;
56745;Laerm;42622;49.972;8.452;2022-11-20T15:33:33;49.55;43.14;65.02;;
56745;Laerm;42622;49.972;8.452;2022-11-20T15:36:00;61.16;43.99;73.47;;
56745;Laerm;42622;49.972;8.452;2022-11-20T15:38:26;54.80;43.54;70.58;;
56745;Laerm;42622;49.972;8.452;2022-11-20T15:40:52;44.77;42.88;52.32;;
56745;Laerm;42622;49.972;8.452;2022-11-20T15:43:17;45.41;43.04;54.91;;
56745;Laerm;42622;49.972;8.452;2022-11-20T15:45:50;54.61;42.93;69.73;;
56745;Laerm;42622;49.972;8.452;2022-11-20T15:48:27;52.12;43.09;68.23;;
56745;Laerm;42622;49.972;8.452;2022-11-20T15:51:37;50.80;42.76;68.09;;
56745;Laerm;42622;49.972;8.452;2022-11-20T15:54:21;55.12;43.44;68.98;;
56745;Laerm;42622;49.972;8.452;2022-11-20T15:56:51;45.33;43.04;53.83;;
56745;Laerm;42622;49.972;8.452;2022-11-20T15:59:20;47.19;43.09;58.65;;
56745;Laerm;42622;49.972;8.452;2022-11-20T16:09:07;47.51;42.53;63.53;;
56745;Laerm;42622;49.972;8.452;2022-11-20T16:11:34;55.60;43.34;66.51;;
56745;Laerm;42622;49.972;8.452;2022-11-20T16:14:04;58.01;43.54;68.24;;
56745;Laerm;42622;49.972;8.452;2022-11-20T16:19:14;56.69;44.43;70.34;;
56745;Laerm;42622;49.972;8.452;2022-11-20T16:21:42;56.69;44.43;70.34;;
56745;Laerm;42622;49.972;8.452;2022-11-20T16:24:12;57.18;44.83;71.58;;
56745;Laerm;42622;49.972;8.452;2022-11-20T16:26:40;48.89;44.15;60.06;;
56745;Laerm;42622;49.972;8.452;2022-11-20T16:29:07;47.35;44.35;54.09;;
56745;Laerm;42622;49.972;8.452;2022-11-20T16:31:34;56.10;44.54;70.86;;
56745;Laerm;42622;49.972;8.452;2022-11-20T16:34:06;60.52;45.17;74.65;;
56745;Laerm;42622;49.972;8.452;2022-11-20T16:36:33;56.68;45.66;69.77;;
56745;Laerm;42622;49.972;8.452;2022-11-20T16:39:03;56.12;45.72;70.48;;
56745;Laerm;42622;49.972;8.452;2022-11-20T16:41:33;62.84;46.69;78.59;;
56745;Laerm;42622;49.972;8.452;2022-11-20T16:44:06;58.81;49.71;84.12;;
56745;Laerm;42622;49.972;8.452;2022-11-20T16:49:06;55.92;47.08;85.57;;
56745;Laerm;42622;49.972;8.452;2022-11-20T16:51:35;54.75;45.17;80.47;;
56745;Laerm;42622;49.972;8.452;2022-11-20T16:54:05;62.49;45.23;77.11;;
56745;Laerm;42622;49.972;8.452;2022-11-20T16:59:00;55.57;45.34;69.60;;
56745;Laerm;42622;49.972;8.452;2022-11-20T17:04:03;56.77;45.86;72.45;;
56745;Laerm;42622;49.972;8.452;2022-11-20T17:06:41;49.80;45.63;74.05;;
56745;Laerm;42622;49.972;8.452;2022-11-20T17:09:09;50.22;46.23;70.40;;
56745;Laerm;42622;49.972;8.452;2022-11-20T17:16:29;51.02;46.10;76.84;;
56745;Laerm;42622;49.972;8.452;2022-11-20T17:18:58;50.14;45.77;60.94;;
56745;Laerm;42622;49.972;8.452;2022-11-20T17:23:51;50.61;45.69;60.58;;
56745;Laerm;42622;49.972;8.452;2022-11-20T17:29:04;57.59;46.43;81.41;;
56745;Laerm;42622;49.972;8.452;2022-11-20T17:31:33;48.52;44.83;57.07;;
56745;Laerm;42622;49.972;8.452;2022-11-20T17:34:01;47.16;44.27;59.64;;
56745;Laerm;42622;49.972;8.452;2022-11-20T17:36:29;47.68;44.73;53.51;;
56745;Laerm;42622;49.972;8.452;2022-11-20T17:38:56;47.23;44.03;56.70;;
56745;Laerm;42622;49.972;8.452;2022-11-20T17:43:56;56.95;44.23;71.52;;
56745;Laerm;42622;49.972;8.452;2022-11-20T17:46:28;47.28;43.97;68.28;;
56745;Laerm;42622;49.972;8.452;2022-11-20T17:48:55;47.82;5.00;75.00;;
56745;Laerm;42622;49.972;8.452;2022-11-20T17:51:28;47.82;5.00;75.00;;
56745;Laerm;42622;49.972;8.452;2022-11-20T17:54:03;45.87;43.24;67.82;;
56745;Laerm;42622;49.972;8.452;2022-11-20T17:59:19;45.53;43.24;53.73;;
56745;Laerm;42622;49.972;8.452;2022-11-20T18:01:45;51.54;43.63;70.04;;
56745;Laerm;42622;49.972;8.452;2022-11-20T18:04:12;59.91;5.00;93.03;;
56745;Laerm;42622;49.972;8.452;2022-11-20T18:06:38;47.31;43.44;74.74;;
56745;Laerm;42622;49.972;8.452;2022-11-20T18:11:37;65.51;5.00;97.19;;
56745;Laerm;42622;49.972;8.452;2022-11-20T18:14:09;56.56;44.62;80.81;;
56745;Laerm;42622;49.972;8.452;2022-11-20T18:17:11;51.85;44.39;84.89;;